sensor_id;sensor_type;location;lat;lon;timestamp;pressure;altitude;pressure_sealevel;temperature;humidity
9415;BME280;4746;35.664;139.738;2024-02-23T00:01:26;101046.13;;;9.99;55.46
9415;BME280;4746;35.664;139.738;2024-02-23T00:03:54;101050.34;;;9.98;55.42
9415;BME280;4746;35.664;139.738;2024-02-23T00:06:22;101051.25;;;10.00;55.28
9415;BME280;4746;35.664;139.738;2024-02-23T00:08:56;101065.00;;;10.04;55.58
9415;BME280;4746;35.664;139.738;2024-02-23T00:11:25;101076.88;;;10.02;55.26
9415;BME280;4746;35.664;139.738;2024-02-23T00:13:52;101068.28;;;9.98;55.22
9415;BME280;4746;35.664;139.738;2024-02-23T00:16:20;101060.44;;;9.94;55.30
9415;BME280;4746;35.664;139.738;2024-02-23T00:18:47;101046.84;;;9.96;55.62
9415;BME280;4746;35.664;139.738;2024-02-23T00:21:16;101044.53;;;10.04;55.21
9415;BME280;4746;35.664;139.738;2024-02-23T00:23:43;101030.91;;;10.06;55.52
9415;BME280;4746;35.664;139.738;2024-02-23T00:26:11;101034.47;;;10.13;55.36
9415;BME280;4746;35.664;139.738;2024-02-23T00:28:38;101043.22;;;10.22;55.47
9415;BME280;4746;35.664;139.738;2024-02-23T00:31:06;101033.94;;;10.29;55.29
9415;BME280;4746;35.664;139.738;2024-02-23T00:33:33;101028.09;;;10.33;55.25
9415;BME280;4746;35.664;139.738;2024-02-23T00:36:01;101028.88;;;10.30;54.32
9415;BME280;4746;35.664;139.738;2024-02-23T00:38:29;101026.41;;;10.35;54.56
9415;BME280;4746;35.664;139.738;2024-02-23T00:40:58;101016.28;;;10.40;54.71
9415;BME280;4746;35.664;139.738;2024-02-23T00:43:25;101023.22;;;10.46;54.64
9415;BME280;4746;35.664;139.738;2024-02-23T00:45:53;101019.94;;;10.51;54.22
9415;BME280;4746;35.664;139.738;2024-02-23T00:48:20;101019.94;;;10.51;54.05
9415;BME280;4746;35.664;139.738;2024-02-23T00:50:48;101020.72;;;10.49;54.32
9415;BME280;4746;35.664;139.738;2024-02-23T00:53:15;101023.38;;;10.53;54.43
9415;BME280;4746;35.664;139.738;2024-02-23T00:55:44;101019.06;;;10.51;54.76
9415;BME280;4746;35.664;139.738;2024-02-23T00:58:11;101011.59;;;10.61;54.54
9415;BME280;4746;35.664;139.738;2024-02-23T01:00:39;101022.00;;;10.70;54.60
9415;BME280;4746;35.664;139.738;2024-02-23T01:03:07;101017.91;;;10.78;54.53
9415;BME280;4746;35.664;139.738;2024-02-23T01:05:34;101012.75;;;10.77;54.08
9415;BME280;4746;35.664;139.738;2024-02-23T01:08:02;101016.94;;;10.72;54.09
9415;BME280;4746;35.664;139.738;2024-02-23T01:10:30;101015.94;;;10.67;54.11
9415;BME280;4746;35.664;139.738;2024-02-23T01:12:58;101026.97;;;10.61;53.85
9415;BME280;4746;35.664;139.738;2024-02-23T01:15:28;101015.78;;;10.56;53.95
9415;BME280;4746;35.664;139.738;2024-02-23T01:17:55;101023.25;;;10.47;53.79
9415;BME280;4746;35.664;139.738;2024-02-23T01:20:23;101028.28;;;10.43;54.28
9415;BME280;4746;35.664;139.738;2024-02-23T01:22:50;101010.31;;;10.41;54.37
9415;BME280;4746;35.664;139.738;2024-02-23T01:25:18;101019.75;;;10.42;54.37
9415;BME280;4746;35.664;139.738;2024-02-23T01:27:46;101023.84;;;10.35;54.16
9415;BME280;4746;35.664;139.738;2024-02-23T01:30:15;101010.88;;;10.27;54.29
9415;BME280;4746;35.664;139.738;2024-02-23T01:32:43;101011.44;;;10.14;54.23
9415;BME280;4746;35.664;139.738;2024-02-23T01:35:11;101013.03;;;10.09;53.99
9415;BME280;4746;35.664;139.738;2024-02-23T01:37:38;101015.56;;;10.06;54.53
9415;BME280;4746;35.664;139.738;2024-02-23T01:40:06;101013.84;;;10.07;54.78
9415;BME280;4746;35.664;139.738;2024-02-23T01:42:34;101001.75;;;10.00;54.62
9415;BME280;4746;35.664;139.738;2024-02-23T01:45:02;101006.81;;;9.97;54.78
9415;BME280;4746;35.664;139.738;2024-02-23T01:47:31;100996.56;;;9.97;54.49
9415;BME280;4746;35.664;139.738;2024-02-23T01:50:00;100988.16;;;10.02;55.10
9415;BME280;4746;35.664;139.738;2024-02-23T01:52:28;100995.94;;;10.08;55.20
9415;BME280;4746;35.664;139.738;2024-02-23T01:54:56;101004.56;;;10.12;55.05
9415;BME280;4746;35.664;139.738;2024-02-23T01:57:26;100996.97;;;10.15;55.11
9415;BME280;4746;35.664;139.738;2024-02-23T01:59:55;100986.84;;;10.21;55.03
9415;BME280;4746;35.664;139.738;2024-02-23T02:02:22;100972.41;;;10.24;54.74
9415;BME280;4746;35.664;139.738;2024-02-23T02:04:50;100981.09;;;10.32;55.20
9415;BME280;4746;35.664;139.738;2024-02-23T02:07:17;100968.50;;;10.41;54.93
9415;BME280;4746;35.664;139.738;2024-02-23T02:09:46;100981.41;;;10.45;54.88
9415;BME280;4746;35.664;139.738;2024-02-23T02:12:14;100986.53;;;10.45;54.70
9415;BME280;4746;35.664;139.738;2024-02-23T02:14:42;100976.84;;;10.33;54.88
9415;BME280;4746;35.664;139.738;2024-02-23T02:17:10;100955.69;;;10.41;55.06
9415;BME280;4746;35.664;139.738;2024-02-23T02:19:37;100950.66;;;10.45;54.50
9415;BME280;4746;35.664;139.738;2024-02-23T02:22:05;100948.22;;;10.51;54.25
9415;BME280;4746;35.664;139.738;2024-02-23T02:24:32;100955.16;;;10.58;54.14
9415;BME280;4746;35.664;139.738;2024-02-23T02:27:00;100943.22;;;10.59;54.05
9415;BME280;4746;35.664;139.738;2024-02-23T02:29:29;100944.25;;;10.68;54.03
9415;BME280;4746;35.664;139.738;2024-02-23T02:31:56;100932.50;;;10.79;54.08
9415;BME280;4746;35.664;139.738;2024-02-23T02:34:24;100924.91;;;10.85;54.19
9415;BME280;4746;35.664;139.738;2024-02-23T02:36:51;100915.63;;;10.93;53.96
9415;BME280;4746;35.664;139.738;2024-02-23T02:39:19;100916.59;;;10.98;53.64
9415;BME280;4746;35.664;139.738;2024-02-23T02:41:48;100930.34;;;11.03;53.65
9415;BME280;4746;35.664;139.738;2024-02-23T02:44:16;100935.50;;;11.05;53.60
9415;BME280;4746;35.664;139.738;2024-02-23T02:46:43;100927.69;;;10.97;53.19
9415;BME280;4746;35.664;139.738;2024-02-23T02:49:13;100907.81;;;10.87;53.28
9415;BME280;4746;35.664;139.738;2024-02-23T02:51:41;100893.25;;;10.85;53.42
9415;BME280;4746;35.664;139.738;2024-02-23T02:54:08;100894.78;;;10.74;53.32
9415;BME280;4746;35.664;139.738;2024-02-23T02:56:36;100900.63;;;10.65;53.05
9415;BME280;4746;35.664;139.738;2024-02-23T02:59:03;100907.25;;;10.54;53.40
9415;BME280;4746;35.664;139.738;2024-02-23T03:01:31;100903.88;;;10.55;53.72
9415;BME280;4746;35.664;139.738;2024-02-23T03:03:58;100910.84;;;10.62;53.59
9415;BME280;4746;35.664;139.738;2024-02-23T03:06:26;100907.47;;;10.66;53.80
9415;BME280;4746;35.664;139.738;2024-02-23T03:08:54;100892.94;;;10.65;53.22
9415;BME280;4746;35.664;139.738;2024-02-23T03:11:21;100897.34;;;10.74;53.72
9415;BME280;4746;35.664;139.738;2024-02-23T03:13:57;100894.25;;;10.91;53.35
9415;BME280;4746;35.664;139.738;2024-02-23T03:16:25;100895.06;;;10.89;53.42
9415;BME280;4746;35.664;139.738;2024-02-23T03:18:57;100894.38;;;11.00;53.46
9415;BME280;4746;35.664;139.738;2024-02-23T03:21:25;100880.91;;;11.13;52.92
9415;BME280;4746;35.664;139.738;2024-02-23T03:23:52;100871.41;;;11.06;52.91
9415;BME280;4746;35.664;139.738;2024-02-23T03:26:20;100868.75;;;11.00;52.57
9415;BME280;4746;35.664;139.738;2024-02-23T03:28:47;100863.59;;;10.97;52.67
9415;BME280;4746;35.664;139.738;2024-02-23T03:31:15;100865.34;;;11.01;52.69
9415;BME280;4746;35.664;139.738;2024-02-23T03:33:43;100879.06;;;11.03;52.88
9415;BME280;4746;35.664;139.738;2024-02-23T03:36:10;100877.38;;;11.05;53.18
9415;BME280;4746;35.664;139.738;2024-02-23T03:38:38;100873.13;;;11.07;53.04
9415;BME280;4746;35.664;139.738;2024-02-23T03:41:05;100865.25;;;10.95;52.67
9415;BME280;4746;35.664;139.738;2024-02-23T03:43:33;100859.94;;;10.83;52.33
9415;BME280;4746;35.664;139.738;2024-02-23T03:46:01;100842.63;;;10.70;52.61
9415;BME280;4746;35.664;139.738;2024-02-23T03:48:29;100846.78;;;10.62;52.88
9415;BME280;4746;35.664;139.738;2024-02-23T03:50:56;100840.72;;;10.57;52.68
9415;BME280;4746;35.664;139.738;2024-02-23T03:53:24;100839.81;;;10.55;52.96
9415;BME280;4746;35.664;139.738;2024-02-23T03:55:51;100835.59;;;10.57;52.89
9415;BME280;4746;35.664;139.738;2024-02-23T03:58:19;100842.41;;;10.58;53.09
9415;BME280;4746;35.664;139.738;2024-02-23T04:00:46;100832.97;;;10.56;52.95
9415;BME280;4746;35.664;139.738;2024-02-23T04:03:13;100840.63;;;10.51;53.14
9415;BME280;4746;35.664;139.738;2024-02-23T04:05:41;100830.19;;;10.42;53.29
9415;BME280;4746;35.664;139.738;2024-02-23T04:08:09;100844.63;;;10.38;52.54
9415;BME280;4746;35.664;139.738;2024-02-23T04:10:36;100822.25;;;10.28;52.75
9415;BME280;4746;35.664;139.738;2024-02-23T04:13:04;100846.81;;;10.17;52.29
9415;BME280;4746;35.664;139.738;2024-02-23T04:15:31;100847.56;;;10.13;53.26
9415;BME280;4746;35.664;139.738;2024-02-23T04:17:59;100837.41;;;10.17;53.51
9415;BME280;4746;35.664;139.738;2024-02-23T04:20:26;100833.34;;;10.28;53.25
9415;BME280;4746;35.664;139.738;2024-02-23T04:22:55;100827.50;;;10.34;53.43
9415;BME280;4746;35.664;139.738;2024-02-23T04:25:22;100825.78;;;10.36;53.53
9415;BME280;4746;35.664;139.738;2024-02-23T04:27:50;100820.66;;;10.34;53.48
9415;BME280;4746;35.664;139.738;2024-02-23T04:30:17;100814.72;;;10.37;53.57
9415;BME280;4746;35.664;139.738;2024-02-23T04:32:45;100828.47;;;10.41;53.69
9415;BME280;4746;35.664;139.738;2024-02-23T04:35:13;100822.59;;;10.47;53.88
9415;BME280;4746;35.664;139.738;2024-02-23T04:37:44;100819.25;;;10.51;53.63
9415;BME280;4746;35.664;139.738;2024-02-23T04:40:12;100815.75;;;10.46;53.76
9415;BME280;4746;35.664;139.738;2024-02-23T04:42:39;100828.56;;;10.47;53.66
9415;BME280;4746;35.664;139.738;2024-02-23T04:45:08;100834.59;;;10.49;53.83
9415;BME280;4746;35.664;139.738;2024-02-23T04:47:36;100833.69;;;10.47;53.77
9415;BME280;4746;35.664;139.738;2024-02-23T04:50:04;100819.94;;;10.42;53.42
9415;BME280;4746;35.664;139.738;2024-02-23T04:52:32;100819.91;;;10.39;53.64
9415;BME280;4746;35.664;139.738;2024-02-23T04:54:59;100816.53;;;10.42;53.98
9415;BME280;4746;35.664;139.738;2024-02-23T04:57:27;100808.03;;;10.44;53.96
9415;BME280;4746;35.664;139.738;2024-02-23T04:59:54;100820.75;;;10.38;53.88
9415;BME280;4746;35.664;139.738;2024-02-23T05:02:22;100829.25;;;10.38;53.99
9415;BME280;4746;35.664;139.738;2024-02-23T05:04:49;100822.28;;;10.31;53.64
9415;BME280;4746;35.664;139.738;2024-02-23T05:07:19;100831.63;;;10.29;53.44
9415;BME280;4746;35.664;139.738;2024-02-23T05:09:47;100835.00;;;10.25;53.94
9415;BME280;4746;35.664;139.738;2024-02-23T05:12:15;100836.59;;;10.20;53.66
9415;BME280;4746;35.664;139.738;2024-02-23T05:14:42;100839.25;;;10.24;54.12
9415;BME280;4746;35.664;139.738;2024-02-23T05:17:10;100835.00;;;10.25;53.84
9415;BME280;4746;35.664;139.738;2024-02-23T05:19:37;100838.38;;;10.24;54.04
9415;BME280;4746;35.664;139.738;2024-02-23T05:22:05;100834.16;;;10.26;53.76
9415;BME280;4746;35.664;139.738;2024-02-23T05:24:32;100829.06;;;10.27;54.23
9415;BME280;4746;35.664;139.738;2024-02-23T05:27:02;100836.84;;;10.32;53.89
9415;BME280;4746;35.664;139.738;2024-02-23T05:29:30;100839.41;;;10.32;53.97
9415;BME280;4746;35.664;139.738;2024-02-23T05:32:00;100832.63;;;10.35;54.32
9415;BME280;4746;35.664;139.738;2024-02-23T05:34:27;100839.59;;;10.43;54.43
9415;BME280;4746;35.664;139.738;2024-02-23T05:36:55;100832.94;;;10.53;54.25
9415;BME280;4746;35.664;139.738;2024-02-23T05:39:24;100839.63;;;10.45;54.65
9415;BME280;4746;35.664;139.738;2024-02-23T05:41:51;100836.22;;;10.44;54.36
9415;BME280;4746;35.664;139.738;2024-02-23T05:44:19;100831.94;;;10.45;54.28
9415;BME280;4746;35.664;139.738;2024-02-23T05:46:47;100844.66;;;10.40;54.36
9415;BME280;4746;35.664;139.738;2024-02-23T05:49:14;100847.16;;;10.36;54.12
9415;BME280;4746;35.664;139.738;2024-02-23T05:51:41;100843.72;;;10.36;54.67
9415;BME280;4746;35.664;139.738;2024-02-23T05:54:10;100849.78;;;10.40;54.73
9415;BME280;4746;35.664;139.738;2024-02-23T05:56:37;100848.94;;;10.41;54.32
9415;BME280;4746;35.664;139.738;2024-02-23T05:59:05;100841.22;;;10.37;54.25
9415;BME280;4746;35.664;139.738;2024-02-23T06:01:33;100850.44;;;10.28;54.15
9415;BME280;4746;35.664;139.738;2024-02-23T06:04:00;100850.25;;;10.20;54.49
9415;BME280;4746;35.664;139.738;2024-02-23T06:06:28;100853.03;;;10.32;54.55
9415;BME280;4746;35.664;139.738;2024-02-23T06:08:58;100858.25;;;10.37;54.99
9415;BME280;4746;35.664;139.738;2024-02-23T06:11:27;100846.47;;;10.44;54.57
9415;BME280;4746;35.664;139.738;2024-02-23T06:13:55;100849.06;;;10.47;54.63
9415;BME280;4746;35.664;139.738;2024-02-23T06:16:22;100854.19;;;10.47;54.36
9415;BME280;4746;35.664;139.738;2024-02-23T06:18:50;100845.75;;;10.51;54.11
9415;BME280;4746;35.664;139.738;2024-02-23T06:21:18;100841.41;;;10.49;54.55
9415;BME280;4746;35.664;139.738;2024-02-23T06:23:45;100837.03;;;10.43;54.29
9415;BME280;4746;35.664;139.738;2024-02-23T06:26:13;100831.84;;;10.40;54.23
9415;BME280;4746;35.664;139.738;2024-02-23T06:28:41;100830.06;;;10.35;54.34
9415;BME280;4746;35.664;139.738;2024-02-23T06:31:10;100836.03;;;10.34;54.45
9415;BME280;4746;35.664;139.738;2024-02-23T06:33:38;100848.81;;;10.33;54.46
9415;BME280;4746;35.664;139.738;2024-02-23T06:36:08;100842.81;;;10.32;54.52
9415;BME280;4746;35.664;139.738;2024-02-23T06:38:36;100836.84;;;10.32;54.58
9415;BME280;4746;35.664;139.738;2024-02-23T06:41:04;100844.53;;;10.33;54.26
9415;BME280;4746;35.664;139.738;2024-02-23T06:43:31;100836.88;;;10.35;54.66
9415;BME280;4746;35.664;139.738;2024-02-23T06:46:03;100845.44;;;10.37;55.09
9415;BME280;4746;35.664;139.738;2024-02-23T06:48:30;100847.19;;;10.39;55.13
9415;BME280;4746;35.664;139.738;2024-02-23T06:50:59;100850.56;;;10.37;54.95
9415;BME280;4746;35.664;139.738;2024-02-23T06:53:26;100851.34;;;10.31;54.86
9415;BME280;4746;35.664;139.738;2024-02-23T06:55:54;100852.91;;;10.25;54.60
9415;BME280;4746;35.664;139.738;2024-02-23T06:58:22;100854.56;;;10.21;54.98
9415;BME280;4746;35.664;139.738;2024-02-23T07:00:49;100851.97;;;10.20;54.74
9415;BME280;4746;35.664;139.738;2024-02-23T07:03:17;100852.78;;;10.17;54.92
9415;BME280;4746;35.664;139.738;2024-02-23T07:05:44;100862.06;;;10.12;54.89
9415;BME280;4746;35.664;139.738;2024-02-23T07:08:13;100866.28;;;10.10;55.06
9415;BME280;4746;35.664;139.738;2024-02-23T07:10:41;100869.66;;;10.08;54.84
9415;BME280;4746;35.664;139.738;2024-02-23T07:13:08;100872.22;;;10.08;54.70
9415;BME280;4746;35.664;139.738;2024-02-23T07:15:36;100873.03;;;10.05;55.17
9415;BME280;4746;35.664;139.738;2024-02-23T07:18:04;100872.19;;;10.05;54.79
9415;BME280;4746;35.664;139.738;2024-02-23T07:20:32;100878.19;;;10.08;55.04
9415;BME280;4746;35.664;139.738;2024-02-23T07:23:01;100873.13;;;10.10;54.81
9415;BME280;4746;35.664;139.738;2024-02-23T07:25:29;100885.81;;;10.04;54.86
9415;BME280;4746;35.664;139.738;2024-02-23T07:27:56;100877.19;;;9.99;55.13
9415;BME280;4746;35.664;139.738;2024-02-23T07:30:24;100880.56;;;9.98;55.05
9415;BME280;4746;35.664;139.738;2024-02-23T07:32:51;100895.94;;;9.98;55.29
9415;BME280;4746;35.664;139.738;2024-02-23T07:35:19;100901.09;;;10.01;55.38
9415;BME280;4746;35.664;139.738;2024-02-23T07:37:46;100896.06;;;10.05;55.25
9415;BME280;4746;35.664;139.738;2024-02-23T07:40:14;100892.78;;;10.11;55.63
9415;BME280;4746;35.664;139.738;2024-02-23T07:42:42;100903.06;;;10.14;55.66
9415;BME280;4746;35.664;139.738;2024-02-23T07:45:10;100901.34;;;10.14;55.57
9415;BME280;4746;35.664;139.738;2024-02-23T07:47:37;100900.50;;;10.14;55.36
9415;BME280;4746;35.664;139.738;2024-02-23T07:50:05;100911.66;;;10.16;55.44
9415;BME280;4746;35.664;139.738;2024-02-23T07:52:33;100909.84;;;10.12;55.30
9415;BME280;4746;35.664;139.738;2024-02-23T07:55:01;100911.44;;;10.07;55.20
9415;BME280;4746;35.664;139.738;2024-02-23T07:57:31;100910.50;;;10.02;55.14
9415;BME280;4746;35.664;139.738;2024-02-23T07:59:59;100917.16;;;9.95;54.93
9415;BME280;4746;35.664;139.738;2024-02-23T08:02:27;100921.38;;;9.93;55.34
9415;BME280;4746;35.664;139.738;2024-02-23T08:04:54;100922.19;;;9.91;55.40
9415;BME280;4746;35.664;139.738;2024-02-23T08:07:22;100928.13;;;9.90;55.25
9415;BME280;4746;35.664;139.738;2024-02-23T08:09:50;100926.44;;;9.90;55.17
9415;BME280;4746;35.664;139.738;2024-02-23T08:12:17;100933.25;;;9.90;55.40
9415;BME280;4746;35.664;139.738;2024-02-23T08:14:47;100932.41;;;9.89;55.28
9415;BME280;4746;35.664;139.738;2024-02-23T08:17:16;100931.50;;;9.89;54.93
9415;BME280;4746;35.664;139.738;2024-02-23T08:19:43;100938.31;;;9.87;55.20
9415;BME280;4746;35.664;139.738;2024-02-23T08:22:11;100944.28;;;9.87;55.16
9415;BME280;4746;35.664;139.738;2024-02-23T08:24:38;100942.59;;;9.88;55.10
9415;BME280;4746;35.664;139.738;2024-02-23T08:27:06;100950.34;;;9.91;55.35
9415;BME280;4746;35.664;139.738;2024-02-23T08:29:33;100953.00;;;9.95;55.33
9415;BME280;4746;35.664;139.738;2024-02-23T08:32:05;100952.28;;;10.01;55.70
9415;BME280;4746;35.664;139.738;2024-02-23T08:34:33;100958.31;;;10.03;55.55
9415;BME280;4746;35.664;139.738;2024-02-23T08:37:01;100954.16;;;10.08;55.74
9415;BME280;4746;35.664;139.738;2024-02-23T08:39:29;100967.84;;;10.10;55.52
9415;BME280;4746;35.664;139.738;2024-02-23T08:41:56;100970.44;;;10.11;55.37
9415;BME280;4746;35.664;139.738;2024-02-23T08:44:24;100970.34;;;10.07;55.18
9415;BME280;4746;35.664;139.738;2024-02-23T08:46:51;100975.34;;;10.02;55.16
9415;BME280;4746;35.664;139.738;2024-02-23T08:49:19;100983.81;;;10.00;55.15
9415;BME280;4746;35.664;139.738;2024-02-23T08:51:46;100989.69;;;9.96;54.79
9415;BME280;4746;35.664;139.738;2024-02-23T08:54:14;100983.59;;;9.89;54.72
9415;BME280;4746;35.664;139.738;2024-02-23T08:56:42;100999.59;;;9.81;55.03
9415;BME280;4746;35.664;139.738;2024-02-23T08:59:10;101000.31;;;9.75;55.09
9415;BME280;4746;35.664;139.738;2024-02-23T09:01:37;100999.41;;;9.73;55.07
9415;BME280;4746;35.664;139.738;2024-02-23T09:04:05;101001.88;;;9.69;55.06
9415;BME280;4746;35.664;139.738;2024-02-23T09:06:32;101004.44;;;9.69;55.25
9415;BME280;4746;35.664;139.738;2024-02-23T09:09:00;101003.59;;;9.70;55.49
9415;BME280;4746;35.664;139.738;2024-02-23T09:11:27;101010.56;;;9.75;55.51
9415;BME280;4746;35.664;139.738;2024-02-23T09:13:55;101008.09;;;9.78;55.62
9415;BME280;4746;35.664;139.738;2024-02-23T09:16:22;100999.53;;;9.79;55.58
9415;BME280;4746;35.664;139.738;2024-02-23T09:18:51;101023.22;;;9.71;55.27
9415;BME280;4746;35.664;139.738;2024-02-23T09:21:19;101017.16;;;9.66;55.37
9415;BME280;4746;35.664;139.738;2024-02-23T09:23:47;101016.28;;;9.64;55.78
9415;BME280;4746;35.664;139.738;2024-02-23T09:26:14;101033.19;;;9.59;56.03
9415;BME280;4746;35.664;139.738;2024-02-23T09:28:42;101033.13;;;9.56;55.89
9415;BME280;4746;35.664;139.738;2024-02-23T09:31:12;101028.94;;;9.60;56.09
9415;BME280;4746;35.664;139.738;2024-02-23T09:33:39;101025.59;;;9.62;55.41
9415;BME280;4746;35.664;139.738;2024-02-23T09:36:07;101029.16;;;9.68;55.87
9415;BME280;4746;35.664;139.738;2024-02-23T09:38:36;101030.97;;;9.72;55.76
9415;BME280;4746;35.664;139.738;2024-02-23T09:41:04;101037.06;;;9.79;55.82
9415;BME280;4746;35.664;139.738;2024-02-23T09:43:34;101035.34;;;9.78;55.73
9415;BME280;4746;35.664;139.738;2024-02-23T09:46:02;101041.28;;;9.77;55.81
9415;BME280;4746;35.664;139.738;2024-02-23T09:48:32;101036.25;;;9.80;55.44
9415;BME280;4746;35.664;139.738;2024-02-23T09:51:02;101042.19;;;9.79;55.48
9415;BME280;4746;35.664;139.738;2024-02-23T09:53:31;101040.53;;;9.81;55.37
9415;BME280;4746;35.664;139.738;2024-02-23T09:56:00;101045.72;;;9.84;55.51
9415;BME280;4746;35.664;139.738;2024-02-23T09:58:29;101043.28;;;9.88;55.83
9415;BME280;4746;35.664;139.738;2024-02-23T10:00:59;101044.19;;;9.90;55.81
9415;BME280;4746;35.664;139.738;2024-02-23T10:03:30;101054.53;;;9.96;55.86
9415;BME280;4746;35.664;139.738;2024-02-23T10:05:59;101041.03;;;10.00;55.15
9415;BME280;4746;35.664;139.738;2024-02-23T10:08:29;101039.25;;;9.98;55.09
9415;BME280;4746;35.664;139.738;2024-02-23T10:10:57;101048.38;;;9.88;54.62
9415;BME280;4746;35.664;139.738;2024-02-23T10:13:25;101039.69;;;9.82;55.28
9415;BME280;4746;35.664;139.738;2024-02-23T10:15:53;101049.88;;;9.79;54.77
9415;BME280;4746;35.664;139.738;2024-02-23T10:18:21;101048.97;;;9.77;55.35
9415;BME280;4746;35.664;139.738;2024-02-23T10:20:48;101044.72;;;9.77;55.19
9415;BME280;4746;35.664;139.738;2024-02-23T10:23:17;101041.22;;;9.74;55.10
9415;BME280;4746;35.664;139.738;2024-02-23T10:25:46;101043.75;;;9.72;55.08
9415;BME280;4746;35.664;139.738;2024-02-23T10:28:14;101047.16;;;9.73;55.19
9415;BME280;4746;35.664;139.738;2024-02-23T10:30:41;101049.75;;;9.74;55.23
9415;BME280;4746;35.664;139.738;2024-02-23T10:33:11;101048.09;;;9.76;55.09
9415;BME280;4746;35.664;139.738;2024-02-23T10:35:41;101059.19;;;9.77;55.12
9415;BME280;4746;35.664;139.738;2024-02-23T10:38:16;101044.75;;;9.79;55.14
9415;BME280;4746;35.664;139.738;2024-02-23T10:40:46;101048.91;;;9.74;55.09
9415;BME280;4746;35.664;139.738;2024-02-23T10:43:20;101056.59;;;9.74;54.77
9415;BME280;4746;35.664;139.738;2024-02-23T10:45:53;101067.47;;;9.66;54.51
9415;BME280;4746;35.664;139.738;2024-02-23T10:48:21;101072.56;;;9.64;54.61
9415;BME280;4746;35.664;139.738;2024-02-23T10:50:50;101067.50;;;9.67;54.48
9415;BME280;4746;35.664;139.738;2024-02-23T10:53:19;101070.97;;;9.69;54.74
9415;BME280;4746;35.664;139.738;2024-02-23T10:55:54;101077.78;;;9.70;54.50
9415;BME280;4746;35.664;139.738;2024-02-23T10:58:25;101076.91;;;9.68;53.94
9415;BME280;4746;35.664;139.738;2024-02-23T11:00:54;101080.25;;;9.66;54.20
9415;BME280;4746;35.664;139.738;2024-02-23T11:03:30;101076.00;;;9.66;54.19
9415;BME280;4746;35.664;139.738;2024-02-23T11:05:59;101082.78;;;9.64;53.96
9415;BME280;4746;35.664;139.738;2024-02-23T11:08:32;101076.81;;;9.65;53.76
9415;BME280;4746;35.664;139.738;2024-02-23T11:11:09;101087.19;;;9.71;54.02
9415;BME280;4746;35.664;139.738;2024-02-23T11:13:44;101086.47;;;9.75;53.70
9415;BME280;4746;35.664;139.738;2024-02-23T11:16:22;101091.59;;;9.76;53.23
9415;BME280;4746;35.664;139.738;2024-02-23T11:19:07;101081.34;;;9.75;53.55
9415;BME280;4746;35.664;139.738;2024-02-23T11:21:38;101083.78;;;9.70;53.42
9415;BME280;4746;35.664;139.738;2024-02-23T11:24:07;101083.00;;;9.73;53.26
9415;BME280;4746;35.664;139.738;2024-02-23T11:26:38;101083.09;;;9.77;53.42
9415;BME280;4746;35.664;139.738;2024-02-23T11:29:14;101077.31;;;9.84;52.82
9415;BME280;4746;35.664;139.738;2024-02-23T11:31:48;101078.16;;;9.85;52.78
9415;BME280;4746;35.664;139.738;2024-02-23T11:34:30;101079.09;;;9.88;53.15
9415;BME280;4746;35.664;139.738;2024-02-23T11:36:57;101078.16;;;9.85;53.26
9415;BME280;4746;35.664;139.738;2024-02-23T11:39:27;101081.72;;;9.91;53.25
9415;BME280;4746;35.664;139.738;2024-02-23T11:41:58;101081.16;;;10.01;53.31
9415;BME280;4746;35.664;139.738;2024-02-23T11:44:26;101087.28;;;10.08;53.37
9415;BME280;4746;35.664;139.738;2024-02-23T11:46:54;101082.22;;;10.11;53.66
9415;BME280;4746;35.664;139.738;2024-02-23T11:49:29;101084.13;;;10.19;53.30
9415;BME280;4746;35.664;139.738;2024-02-23T11:51:58;101077.31;;;10.20;53.36
9415;BME280;4746;35.664;139.738;2024-02-23T11:54:26;101085.91;;;10.22;53.03
9415;BME280;4746;35.664;139.738;2024-02-23T11:56:53;101086.72;;;10.21;52.58
9415;BME280;4746;35.664;139.738;2024-02-23T11:59:22;101084.16;;;10.21;52.55
9415;BME280;4746;35.664;139.738;2024-02-23T12:01:50;101083.34;;;10.23;52.45
9415;BME280;4746;35.664;139.738;2024-02-23T12:04:17;101084.28;;;10.27;52.46
9415;BME280;4746;35.664;139.738;2024-02-23T12:06:45;101083.63;;;10.35;52.68
9415;BME280;4746;35.664;139.738;2024-02-23T12:09:14;101091.47;;;10.42;52.26
9415;BME280;4746;35.664;139.738;2024-02-23T12:11:42;101086.44;;;10.47;52.13
9415;BME280;4746;35.664;139.738;2024-02-23T12:14:11;101085.69;;;10.52;51.71
9415;BME280;4746;35.664;139.738;2024-02-23T12:16:41;101088.34;;;10.55;50.64
9415;BME280;4746;35.664;139.738;2024-02-23T12:19:09;101084.94;;;10.56;50.26
9415;BME280;4746;35.664;139.738;2024-02-23T12:21:37;101077.97;;;10.51;49.92
9415;BME280;4746;35.664;139.738;2024-02-23T12:24:06;101078.81;;;10.50;49.94
9415;BME280;4746;35.664;139.738;2024-02-23T12:26:34;101083.94;;;10.50;49.98
9415;BME280;4746;35.664;139.738;2024-02-23T12:29:03;101082.94;;;10.43;49.66
9415;BME280;4746;35.664;139.738;2024-02-23T12:31:32;101084.59;;;10.41;49.69
9415;BME280;4746;35.664;139.738;2024-02-23T12:34:01;101075.13;;;10.38;49.39
9415;BME280;4746;35.664;139.738;2024-02-23T12:36:29;101072.56;;;10.38;49.47
9415;BME280;4746;35.664;139.738;2024-02-23T12:39:01;101081.91;;;10.36;49.67
9415;BME280;4746;35.664;139.738;2024-02-23T12:41:29;101079.31;;;10.33;49.47
9415;BME280;4746;35.664;139.738;2024-02-23T12:43:59;101075.84;;;10.31;49.06
9415;BME280;4746;35.664;139.738;2024-02-23T12:46:27;101085.13;;;10.26;49.29
9415;BME280;4746;35.664;139.738;2024-02-23T12:48:54;101080.78;;;10.22;49.43
9415;BME280;4746;35.664;139.738;2024-02-23T12:51:26;101076.53;;;10.24;49.06
9415;BME280;4746;35.664;139.738;2024-02-23T12:53:54;101063.66;;;10.21;48.91
9415;BME280;4746;35.664;139.738;2024-02-23T12:56:21;101070.44;;;10.19;48.63
9415;BME280;4746;35.664;139.738;2024-02-23T12:58:49;101065.31;;;10.19;48.54